sensor_id;sensor_type;location;lat;lon;timestamp;P1;durP1;ratioP1;P2;durP2;ratioP2
7110;SDS011;3597;42.650;23.386;2022-09-17T00:00:13;7.33;;;7.13;;
7110;SDS011;3597;42.650;23.386;2022-09-17T00:02:39;8.20;;;7.90;;
7110;SDS011;3597;42.650;23.386;2022-09-17T00:05:06;7.60;;;7.30;;
7110;SDS011;3597;42.650;23.386;2022-09-17T00:07:31;7.23;;;7.10;;
7110;SDS011;3597;42.650;23.386;2022-09-17T00:09:57;7.73;;;7.47;;
7110;SDS011;3597;42.650;23.386;2022-09-17T00:12:22;8.60;;;8.30;;
7110;SDS011;3597;42.650;23.386;2022-09-17T00:14:48;8.23;;;8.03;;
7110;SDS011;3597;42.650;23.386;2022-09-17T00:17:13;8.07;;;7.77;;
7110;SDS011;3597;42.650;23.386;2022-09-17T00:19:38;9.07;;;8.87;;
7110;SDS011;3597;42.650;23.386;2022-09-17T00:22:04;8.73;;;8.53;;
7110;SDS011;3597;42.650;23.386;2022-09-17T00:24:29;8.43;;;8.23;;
7110;SDS011;3597;42.650;23.386;2022-09-17T00:26:55;8.40;;;8.27;;
7110;SDS011;3597;42.650;23.386;2022-09-17T00:29:20;8.33;;;8.13;;
7110;SDS011;3597;42.650;23.386;2022-09-17T00:31:46;9.07;;;8.87;;
7110;SDS011;3597;42.650;23.386;2022-09-17T00:34:11;9.27;;;9.07;;
7110;SDS011;3597;42.650;23.386;2022-09-17T00:36:37;9.30;;;9.10;;
7110;SDS011;3597;42.650;23.386;2022-09-17T00:39:04;10.33;;;10.03;;
7110;SDS011;3597;42.650;23.386;2022-09-17T00:41:31;10.23;;;10.03;;
7110;SDS011;3597;42.650;23.386;2022-09-17T00:43:58;10.17;;;9.87;;
7110;SDS011;3597;42.650;23.386;2022-09-17T00:46:32;10.27;;;10.07;;
7110;SDS011;3597;42.650;23.386;2022-09-17T00:49:04;10.27;;;9.97;;
7110;SDS011;3597;42.650;23.386;2022-09-17T00:51:35;11.10;;;10.80;;
7110;SDS011;3597;42.650;23.386;2022-09-17T00:54:03;10.23;;;9.83;;
7110;SDS011;3597;42.650;23.386;2022-09-17T00:56:31;10.90;;;10.50;;
7110;SDS011;3597;42.650;23.386;2022-09-17T00:58:58;11.07;;;10.77;;
7110;SDS011;3597;42.650;23.386;2022-09-17T01:01:25;10.97;;;10.73;;
7110;SDS011;3597;42.650;23.386;2022-09-17T01:03:51;12.07;;;11.73;;
7110;SDS011;3597;42.650;23.386;2022-09-17T01:16:59;13.83;;;13.43;;
7110;SDS011;3597;42.650;23.386;2022-09-17T01:22:47;13.53;;;13.07;;
7110;SDS011;3597;42.650;23.386;2022-09-17T01:25:47;15.40;;;14.83;;
7110;SDS011;3597;42.650;23.386;2022-09-17T01:33:27;15.67;;;15.17;;
7110;SDS011;3597;42.650;23.386;2022-09-17T01:36:08;15.20;;;14.70;;
7110;SDS011;3597;42.650;23.386;2022-09-17T01:39:17;13.43;;;12.97;;
7110;SDS011;3597;42.650;23.386;2022-09-17T01:44:11;13.57;;;13.17;;
7110;SDS011;3597;42.650;23.386;2022-09-17T01:46:45;14.53;;;14.13;;
7110;SDS011;3597;42.650;23.386;2022-09-17T01:49:15;13.77;;;13.27;;
7110;SDS011;3597;42.650;23.386;2022-09-17T01:51:42;13.37;;;12.97;;
7110;SDS011;3597;42.650;23.386;2022-09-17T01:54:31;11.60;;;11.27;;
7110;SDS011;3597;42.650;23.386;2022-09-17T01:57:01;11.27;;;10.87;;
7110;SDS011;3597;42.650;23.386;2022-09-17T01:59:34;11.47;;;11.07;;
7110;SDS011;3597;42.650;23.386;2022-09-17T02:02:12;11.03;;;10.73;;
7110;SDS011;3597;42.650;23.386;2022-09-17T02:04:45;12.23;;;11.93;;
7110;SDS011;3597;42.650;23.386;2022-09-17T02:07:14;11.63;;;11.33;;
7110;SDS011;3597;42.650;23.386;2022-09-17T02:09:58;14.17;;;13.57;;
7110;SDS011;3597;42.650;23.386;2022-09-17T02:12:32;12.57;;;12.13;;
7110;SDS011;3597;42.650;23.386;2022-09-17T02:15:00;14.13;;;13.63;;
7110;SDS011;3597;42.650;23.386;2022-09-17T02:20:02;15.50;;;14.87;;
7110;SDS011;3597;42.650;23.386;2022-09-17T02:22:31;17.03;;;16.53;;
7110;SDS011;3597;42.650;23.386;2022-09-17T02:25:03;16.73;;;16.13;;
7110;SDS011;3597;42.650;23.386;2022-09-17T02:30:23;17.77;;;17.17;;
7110;SDS011;3597;42.650;23.386;2022-09-17T02:32:49;17.80;;;17.10;;
7110;SDS011;3597;42.650;23.386;2022-09-17T02:35:15;16.17;;;15.67;;
7110;SDS011;3597;42.650;23.386;2022-09-17T02:37:41;13.83;;;13.33;;
7110;SDS011;3597;42.650;23.386;2022-09-17T02:40:07;13.77;;;13.17;;
7110;SDS011;3597;42.650;23.386;2022-09-17T02:42:58;12.83;;;12.43;;
7110;SDS011;3597;42.650;23.386;2022-09-17T02:51:39;6.97;;;6.87;;
7110;SDS011;3597;42.650;23.386;2022-09-17T02:54:28;7.23;;;7.03;;
7110;SDS011;3597;42.650;23.386;2022-09-17T02:59:55;10.83;;;10.53;;
7110;SDS011;3597;42.650;23.386;2022-09-17T03:02:29;13.97;;;13.47;;
7110;SDS011;3597;42.650;23.386;2022-09-17T03:04:57;13.50;;;13.10;;
7110;SDS011;3597;42.650;23.386;2022-09-17T03:07:24;12.47;;;12.13;;
7110;SDS011;3597;42.650;23.386;2022-09-17T03:09:49;12.27;;;11.83;;
7110;SDS011;3597;42.650;23.386;2022-09-17T03:12:15;11.53;;;11.17;;
7110;SDS011;3597;42.650;23.386;2022-09-17T03:14:40;14.00;;;13.60;;
7110;SDS011;3597;42.650;23.386;2022-09-17T03:17:06;11.10;;;10.87;;
7110;SDS011;3597;42.650;23.386;2022-09-17T03:19:31;9.93;;;9.70;;
7110;SDS011;3597;42.650;23.386;2022-09-17T03:21:57;9.60;;;9.33;;
7110;SDS011;3597;42.650;23.386;2022-09-17T03:24:22;8.73;;;8.53;;
7110;SDS011;3597;42.650;23.386;2022-09-17T03:26:47;8.57;;;8.37;;
7110;SDS011;3597;42.650;23.386;2022-09-17T03:29:13;9.03;;;8.83;;
7110;SDS011;3597;42.650;23.386;2022-09-17T03:31:39;6.77;;;6.67;;
7110;SDS011;3597;42.650;23.386;2022-09-17T03:34:04;8.33;;;8.13;;
7110;SDS011;3597;42.650;23.386;2022-09-17T03:36:30;8.23;;;8.03;;
7110;SDS011;3597;42.650;23.386;2022-09-17T03:38:56;8.47;;;8.37;;
7110;SDS011;3597;42.650;23.386;2022-09-17T03:41:22;7.83;;;7.63;;
7110;SDS011;3597;42.650;23.386;2022-09-17T03:43:48;6.50;;;6.40;;
7110;SDS011;3597;42.650;23.386;2022-09-17T03:46:13;5.50;;;5.33;;
7110;SDS011;3597;42.650;23.386;2022-09-17T03:48:39;5.67;;;5.50;;
7110;SDS011;3597;42.650;23.386;2022-09-17T03:51:04;4.40;;;4.33;;
7110;SDS011;3597;42.650;23.386;2022-09-17T03:53:30;4.47;;;4.37;;
7110;SDS011;3597;42.650;23.386;2022-09-17T03:56:00;4.07;;;4.00;;
7110;SDS011;3597;42.650;23.386;2022-09-17T03:58:26;4.50;;;4.40;;
7110;SDS011;3597;42.650;23.386;2022-09-17T04:00:52;27.10;;;25.97;;
7110;SDS011;3597;42.650;23.386;2022-09-17T04:03:20;3.97;;;3.97;;
7110;SDS011;3597;42.650;23.386;2022-09-17T04:05:46;4.90;;;4.80;;
7110;SDS011;3597;42.650;23.386;2022-09-17T04:08:11;4.93;;;4.73;;
7110;SDS011;3597;42.650;23.386;2022-09-17T04:10:37;5.17;;;5.10;;
7110;SDS011;3597;42.650;23.386;2022-09-17T04:13:02;5.30;;;5.20;;
7110;SDS011;3597;42.650;23.386;2022-09-17T04:15:27;4.67;;;4.57;;
7110;SDS011;3597;42.650;23.386;2022-09-17T04:17:56;5.80;;;5.60;;
7110;SDS011;3597;42.650;23.386;2022-09-17T04:20:22;5.53;;;5.33;;
7110;SDS011;3597;42.650;23.386;2022-09-17T04:22:48;7.50;;;7.30;;
7110;SDS011;3597;42.650;23.386;2022-09-17T04:25:13;5.67;;;5.57;;
7110;SDS011;3597;42.650;23.386;2022-09-17T04:27:39;5.33;;;5.23;;
7110;SDS011;3597;42.650;23.386;2022-09-17T04:30:04;5.07;;;4.97;;
7110;SDS011;3597;42.650;23.386;2022-09-17T04:32:30;6.10;;;5.97;;
7110;SDS011;3597;42.650;23.386;2022-09-17T04:34:55;5.50;;;5.40;;
7110;SDS011;3597;42.650;23.386;2022-09-17T04:37:21;5.93;;;5.80;;
7110;SDS011;3597;42.650;23.386;2022-09-17T04:39:47;7.37;;;7.20;;
7110;SDS011;3597;42.650;23.386;2022-09-17T04:42:13;6.17;;;5.97;;
7110;SDS011;3597;42.650;23.386;2022-09-17T04:44:39;5.70;;;5.60;;
7110;SDS011;3597;42.650;23.386;2022-09-17T04:47:05;5.47;;;5.37;;
7110;SDS011;3597;42.650;23.386;2022-09-17T04:49:30;5.03;;;4.93;;
7110;SDS011;3597;42.650;23.386;2022-09-17T04:51:56;4.53;;;4.43;;
7110;SDS011;3597;42.650;23.386;2022-09-17T04:54:22;5.33;;;5.23;;
7110;SDS011;3597;42.650;23.386;2022-09-17T04:56:48;5.87;;;5.67;;
7110;SDS011;3597;42.650;23.386;2022-09-17T04:59:14;5.83;;;5.73;;
7110;SDS011;3597;42.650;23.386;2022-09-17T05:01:39;6.07;;;5.87;;
7110;SDS011;3597;42.650;23.386;2022-09-17T05:04:06;7.57;;;7.43;;
7110;SDS011;3597;42.650;23.386;2022-09-17T05:06:31;17.77;;;16.93;;
7110;SDS011;3597;42.650;23.386;2022-09-17T05:08:57;8.37;;;8.20;;
7110;SDS011;3597;42.650;23.386;2022-09-17T05:11:22;8.53;;;8.23;;
7110;SDS011;3597;42.650;23.386;2022-09-17T05:13:47;8.60;;;8.30;;
7110;SDS011;3597;42.650;23.386;2022-09-17T05:16:13;9.83;;;9.63;;
7110;SDS011;3597;42.650;23.386;2022-09-17T05:18:38;9.97;;;9.67;;
7110;SDS011;3597;42.650;23.386;2022-09-17T05:21:04;10.83;;;10.53;;
7110;SDS011;3597;42.650;23.386;2022-09-17T05:23:29;9.83;;;9.53;;
7110;SDS011;3597;42.650;23.386;2022-09-17T05:25:58;11.77;;;11.47;;
7110;SDS011;3597;42.650;23.386;2022-09-17T05:28:24;9.03;;;8.83;;
7110;SDS011;3597;42.650;23.386;2022-09-17T05:30:50;11.30;;;10.87;;
7110;SDS011;3597;42.650;23.386;2022-09-17T05:33:15;9.27;;;8.80;;
7110;SDS011;3597;42.650;23.386;2022-09-17T05:35:41;8.53;;;8.33;;
7110;SDS011;3597;42.650;23.386;2022-09-17T05:38:08;9.10;;;8.80;;
7110;SDS011;3597;42.650;23.386;2022-09-17T05:40:34;10.90;;;10.60;;
7110;SDS011;3597;42.650;23.386;2022-09-17T05:43:00;14.07;;;13.50;;
7110;SDS011;3597;42.650;23.386;2022-09-17T05:45:28;12.70;;;12.20;;
7110;SDS011;3597;42.650;23.386;2022-09-17T05:47:54;14.17;;;13.50;;
7110;SDS011;3597;42.650;23.386;2022-09-17T05:50:21;13.53;;;12.97;;
7110;SDS011;3597;42.650;23.386;2022-09-17T05:52:47;13.27;;;12.87;;
7110;SDS011;3597;42.650;23.386;2022-09-17T05:55:12;12.77;;;12.37;;
7110;SDS011;3597;42.650;23.386;2022-09-17T05:57:38;10.40;;;10.17;;
7110;SDS011;3597;42.650;23.386;2022-09-17T06:00:03;10.13;;;9.73;;
7110;SDS011;3597;42.650;23.386;2022-09-17T06:02:30;7.43;;;7.33;;
7110;SDS011;3597;42.650;23.386;2022-09-17T06:04:55;8.67;;;8.47;;
7110;SDS011;3597;42.650;23.386;2022-09-17T06:07:24;8.63;;;8.43;;
7110;SDS011;3597;42.650;23.386;2022-09-17T06:09:50;8.37;;;8.17;;
7110;SDS011;3597;42.650;23.386;2022-09-17T06:12:15;9.43;;;9.13;;
7110;SDS011;3597;42.650;23.386;2022-09-17T06:14:41;9.50;;;9.30;;
7110;SDS011;3597;42.650;23.386;2022-09-17T06:17:06;9.47;;;9.27;;
7110;SDS011;3597;42.650;23.386;2022-09-17T06:19:31;11.27;;;10.97;;
7110;SDS011;3597;42.650;23.386;2022-09-17T06:21:57;9.07;;;8.77;;
7110;SDS011;3597;42.650;23.386;2022-09-17T06:24:23;9.13;;;8.93;;
7110;SDS011;3597;42.650;23.386;2022-09-17T06:26:48;10.17;;;9.97;;
7110;SDS011;3597;42.650;23.386;2022-09-17T06:29:14;7.97;;;7.77;;
7110;SDS011;3597;42.650;23.386;2022-09-17T06:31:39;10.30;;;9.80;;
7110;SDS011;3597;42.650;23.386;2022-09-17T06:34:07;11.97;;;11.57;;
7110;SDS011;3597;42.650;23.386;2022-09-17T06:36:33;11.97;;;11.57;;
7110;SDS011;3597;42.650;23.386;2022-09-17T06:38:58;10.87;;;10.53;;
7110;SDS011;3597;42.650;23.386;2022-09-17T06:41:24;11.27;;;10.83;;
7110;SDS011;3597;42.650;23.386;2022-09-17T06:43:51;9.77;;;9.47;;
7110;SDS011;3597;42.650;23.386;2022-09-17T06:46:17;9.60;;;9.40;;
7110;SDS011;3597;42.650;23.386;2022-09-17T06:48:43;8.77;;;8.57;;
7110;SDS011;3597;42.650;23.386;2022-09-17T06:51:09;13.33;;;12.93;;
7110;SDS011;3597;42.650;23.386;2022-09-17T06:53:35;9.20;;;9.00;;
7110;SDS011;3597;42.650;23.386;2022-09-17T06:56:01;8.83;;;8.63;;
7110;SDS011;3597;42.650;23.386;2022-09-17T06:58:27;8.37;;;7.97;;
7110;SDS011;3597;42.650;23.386;2022-09-17T07:00:57;8.27;;;8.07;;
7110;SDS011;3597;42.650;23.386;2022-09-17T07:03:24;10.47;;;10.10;;
7110;SDS011;3597;42.650;23.386;2022-09-17T07:05:50;9.03;;;8.73;;
7110;SDS011;3597;42.650;23.386;2022-09-17T07:08:15;11.70;;;11.33;;
7110;SDS011;3597;42.650;23.386;2022-09-17T07:10:41;15.30;;;14.80;;
7110;SDS011;3597;42.650;23.386;2022-09-17T07:13:07;15.07;;;14.53;;
7110;SDS011;3597;42.650;23.386;2022-09-17T07:15:32;16.10;;;15.50;;
7110;SDS011;3597;42.650;23.386;2022-09-17T07:17:57;17.63;;;16.80;;
7110;SDS011;3597;42.650;23.386;2022-09-17T07:20:23;21.57;;;20.77;;
7110;SDS011;3597;42.650;23.386;2022-09-17T07:22:55;26.03;;;24.83;;
7110;SDS011;3597;42.650;23.386;2022-09-17T07:25:24;28.47;;;27.37;;
7110;SDS011;3597;42.650;23.386;2022-09-17T07:27:50;21.03;;;20.23;;
7110;SDS011;3597;42.650;23.386;2022-09-17T07:30:16;13.17;;;12.57;;
7110;SDS011;3597;42.650;23.386;2022-09-17T07:32:41;10.40;;;10.00;;
7110;SDS011;3597;42.650;23.386;2022-09-17T07:35:07;12.53;;;12.23;;
7110;SDS011;3597;42.650;23.386;2022-09-17T07:37:32;13.20;;;12.80;;
7110;SDS011;3597;42.650;23.386;2022-09-17T07:39:58;7.47;;;7.27;;
7110;SDS011;3597;42.650;23.386;2022-09-17T07:42:23;11.43;;;11.17;;
7110;SDS011;3597;42.650;23.386;2022-09-17T07:44:49;26.93;;;25.90;;
7110;SDS011;3597;42.650;23.386;2022-09-17T07:47:14;26.70;;;25.73;;
7110;SDS011;3597;42.650;23.386;2022-09-17T07:49:40;30.97;;;29.63;;
7110;SDS011;3597;42.650;23.386;2022-09-17T07:52:05;28.37;;;27.33;;
7110;SDS011;3597;42.650;23.386;2022-09-17T07:54:34;32.73;;;31.57;;
7110;SDS011;3597;42.650;23.386;2022-09-17T07:57:01;31.07;;;29.90;;
7110;SDS011;3597;42.650;23.386;2022-09-17T07:59:26;30.97;;;29.67;;
7110;SDS011;3597;42.650;23.386;2022-09-17T08:01:52;22.70;;;21.63;;
7110;SDS011;3597;42.650;23.386;2022-09-17T08:04:17;16.30;;;15.70;;
7110;SDS011;3597;42.650;23.386;2022-09-17T08:06:43;15.80;;;15.30;;
7110;SDS011;3597;42.650;23.386;2022-09-17T08:09:12;11.20;;;10.90;;
7110;SDS011;3597;42.650;23.386;2022-09-17T08:11:39;10.93;;;10.63;;
7110;SDS011;3597;42.650;23.386;2022-09-17T08:14:04;13.17;;;12.77;;
7110;SDS011;3597;42.650;23.386;2022-09-17T08:16:30;18.57;;;17.93;;
7110;SDS011;3597;42.650;23.386;2022-09-17T08:18:55;21.13;;;20.43;;
7110;SDS011;3597;42.650;23.386;2022-09-17T08:21:21;27.60;;;26.53;;
7110;SDS011;3597;42.650;23.386;2022-09-17T08:23:47;39.10;;;37.60;;
7110;SDS011;3597;42.650;23.386;2022-09-17T08:26:13;40.17;;;38.53;;
7110;SDS011;3597;42.650;23.386;2022-09-17T08:28:43;46.70;;;44.80;;
7110;SDS011;3597;42.650;23.386;2022-09-17T08:31:10;46.17;;;44.20;;
7110;SDS011;3597;42.650;23.386;2022-09-17T08:33:36;32.50;;;31.30;;
7110;SDS011;3597;42.650;23.386;2022-09-17T08:36:03;25.03;;;24.03;;
7110;SDS011;3597;42.650;23.386;2022-09-17T08:38:31;15.33;;;14.83;;
7110;SDS011;3597;42.650;23.386;2022-09-17T08:43:38;7.07;;;6.97;;
7110;SDS011;3597;42.650;23.386;2022-09-17T08:46:07;9.33;;;9.13;;
7110;SDS011;3597;42.650;23.386;2022-09-17T08:48:36;8.97;;;8.73;;
7110;SDS011;3597;42.650;23.386;2022-09-17T08:51:27;7.87;;;7.77;;
7110;SDS011;3597;42.650;23.386;2022-09-17T08:54:08;7.03;;;6.83;;
7110;SDS011;3597;42.650;23.386;2022-09-17T08:56:41;7.90;;;7.70;;
7110;SDS011;3597;42.650;23.386;2022-09-17T08:59:24;6.90;;;6.70;;
7110;SDS011;3597;42.650;23.386;2022-09-17T09:07:19;6.37;;;6.27;;
7110;SDS011;3597;42.650;23.386;2022-09-17T09:09:53;13.37;;;13.07;;
7110;SDS011;3597;42.650;23.386;2022-09-17T09:12:24;11.03;;;10.63;;
7110;SDS011;3597;42.650;23.386;2022-09-17T09:15:00;19.43;;;18.70;;
7110;SDS011;3597;42.650;23.386;2022-09-17T09:17:31;28.47;;;27.40;;
7110;SDS011;3597;42.650;23.386;2022-09-17T09:19:59;42.27;;;40.60;;
7110;SDS011;3597;42.650;23.386;2022-09-17T09:22:35;45.23;;;43.40;;
7110;SDS011;3597;42.650;23.386;2022-09-17T09:30:52;11.43;;;11.23;;
7110;SDS011;3597;42.650;23.386;2022-09-17T09:33:34;8.90;;;8.70;;
7110;SDS011;3597;42.650;23.386;2022-09-17T09:36:01;5.10;;;5.07;;
7110;SDS011;3597;42.650;23.386;2022-09-17T09:38:31;9.23;;;9.03;;
7110;SDS011;3597;42.650;23.386;2022-09-17T09:41:08;14.57;;;14.10;;
7110;SDS011;3597;42.650;23.386;2022-09-17T09:43:45;16.07;;;15.60;;
7110;SDS011;3597;42.650;23.386;2022-09-17T09:57:16;9.50;;;9.30;;
7110;SDS011;3597;42.650;23.386;2022-09-17T09:59:45;8.17;;;7.97;;
7110;SDS011;3597;42.650;23.386;2022-09-17T10:02:11;11.00;;;10.70;;
7110;SDS011;3597;42.650;23.386;2022-09-17T10:04:36;26.77;;;25.70;;
7110;SDS011;3597;42.650;23.386;2022-09-17T10:07:11;31.70;;;30.53;;
7110;SDS011;3597;42.650;23.386;2022-09-17T10:09:37;38.90;;;37.37;;
7110;SDS011;3597;42.650;23.386;2022-09-17T10:14:35;36.13;;;34.70;;
7110;SDS011;3597;42.650;23.386;2022-09-17T10:19:39;14.13;;;13.73;;
7110;SDS011;3597;42.650;23.386;2022-09-17T10:24:53;7.40;;;7.20;;
7110;SDS011;3597;42.650;23.386;2022-09-17T10:27:20;7.80;;;7.60;;
7110;SDS011;3597;42.650;23.386;2022-09-17T10:29:47;5.67;;;5.57;;
7110;SDS011;3597;42.650;23.386;2022-09-17T10:32:19;3.70;;;3.60;;
7110;SDS011;3597;42.650;23.386;2022-09-17T10:37:42;5.83;;;5.73;;
7110;SDS011;3597;42.650;23.386;2022-09-17T10:40:31;5.97;;;5.87;;
7110;SDS011;3597;42.650;23.386;2022-09-17T10:43:16;5.63;;;5.53;;
7110;SDS011;3597;42.650;23.386;2022-09-17T10:45:44;5.70;;;5.60;;
7110;SDS011;3597;42.650;23.386;2022-09-17T10:48:14;5.20;;;5.13;;
7110;SDS011;3597;42.650;23.386;2022-09-17T10:50:46;4.93;;;4.93;;
7110;SDS011;3597;42.650;23.386;2022-09-17T10:53:14;7.70;;;7.60;;
7110;SDS011;3597;42.650;23.386;2022-09-17T10:55:43;8.37;;;8.17;;
7110;SDS011;3597;42.650;23.386;2022-09-17T11:04:14;8.57;;;8.37;;
7110;SDS011;3597;42.650;23.386;2022-09-17T11:09:48;7.77;;;7.67;;
7110;SDS011;3597;42.650;23.386;2022-09-17T11:12:30;5.43;;;5.33;;
7110;SDS011;3597;42.650;23.386;2022-09-17T11:31:39;5.70;;;5.60;;
7110;SDS011;3597;42.650;23.386;2022-09-17T11:36:55;6.10;;;5.90;;
7110;SDS011;3597;42.650;23.386;2022-09-17T11:39:57;8.03;;;7.83;;
7110;SDS011;3597;42.650;23.386;2022-09-17T11:42:17;11.73;;;11.43;;
7110;SDS011;3597;42.650;23.386;2022-09-17T11:49:59;19.83;;;19.23;;
7110;SDS011;3597;42.650;23.386;2022-09-17T11:55:01;16.33;;;15.87;;
7110;SDS011;3597;42.650;23.386;2022-09-17T11:57:48;18.53;;;17.83;;
7110;SDS011;3597;42.650;23.386;2022-09-17T12:00:16;19.27;;;18.57;;
7110;SDS011;3597;42.650;23.386;2022-09-17T12:15:56;22.73;;;21.90;;
7110;SDS011;3597;42.650;23.386;2022-09-17T12:18:48;24.13;;;23.27;;
7110;SDS011;3597;42.650;23.386;2022-09-17T12:21:17;18.17;;;17.63;;
7110;SDS011;3597;42.650;23.386;2022-09-17T12:23:50;17.77;;;17.27;;
7110;SDS011;3597;42.650;23.386;2022-09-17T12:43:38;16.83;;;16.33;;
7110;SDS011;3597;42.650;23.386;2022-09-17T12:46:40;23.73;;;22.93;;
7110;SDS011;3597;42.650;23.386;2022-09-17T12:51:56;17.40;;;16.90;;
7110;SDS011;3597;42.650;23.386;2022-09-17T12:59:42;14.83;;;14.40;;
7110;SDS011;3597;42.650;23.386;2022-09-17T13:02:24;11.57;;;11.27;;
7110;SDS011;3597;42.650;23.386;2022-09-17T13:07:34;6.07;;;5.97;;
7110;SDS011;3597;42.650;23.386;2022-09-17T13:21:14;4.67;;;4.67;;
7110;SDS011;3597;42.650;23.386;2022-09-17T13:23:48;11.03;;;10.63;;
7110;SDS011;3597;42.650;23.386;2022-09-17T13:26:15;9.03;;;8.87;;
7110;SDS011;3597;42.650;23.386;2022-09-17T13:31:09;9.07;;;8.87;;
7110;SDS011;3597;42.650;23.386;2022-09-17T13:33:55;10.57;;;10.27;;
7110;SDS011;3597;42.650;23.386;2022-09-17T13:36:35;10.07;;;9.87;;
7110;SDS011;3597;42.650;23.386;2022-09-17T13:39:02;10.83;;;10.63;;
7110;SDS011;3597;42.650;23.386;2022-09-17T13:41:31;11.27;;;11.07;;
7110;SDS011;3597;42.650;23.386;2022-09-17T13:44:01;8.13;;;7.93;;
7110;SDS011;3597;42.650;23.386;2022-09-17T13:46:28;27.87;;;26.73;;
7110;SDS011;3597;42.650;23.386;2022-09-17T13:48:58;7.43;;;7.33;;
7110;SDS011;3597;42.650;23.386;2022-09-17T13:53:54;7.17;;;7.07;;
7110;SDS011;3597;42.650;23.386;2022-09-17T13:57:02;7.47;;;7.33;;
7110;SDS011;3597;42.650;23.386;2022-09-17T13:59:14;6.73;;;6.63;;
7110;SDS011;3597;42.650;23.386;2022-09-17T14:04:45;8.87;;;8.73;;
7110;SDS011;3597;42.650;23.386;2022-09-17T14:20:50;12.97;;;12.60;;
7110;SDS011;3597;42.650;23.386;2022-09-17T14:23:17;11.93;;;11.53;;
7110;SDS011;3597;42.650;23.386;2022-09-17T14:25:51;16.53;;;15.93;;
7110;SDS011;3597;42.650;23.386;2022-09-17T14:30:53;13.97;;;13.57;;
7110;SDS011;3597;42.650;23.386;2022-09-17T14:33:21;12.07;;;11.77;;
7110;SDS011;3597;42.650;23.386;2022-09-17T14:35:59;14.43;;;14.03;;
7110;SDS011;3597;42.650;23.386;2022-09-17T14:38:29;12.13;;;11.83;;
7110;SDS011;3597;42.650;23.386;2022-09-17T14:43:40;5.90;;;5.77;;
7110;SDS011;3597;42.650;23.386;2022-09-17T14:46:17;4.57;;;4.57;;
7110;SDS011;3597;42.650;23.386;2022-09-17T14:48:44;4.93;;;4.83;;
7110;SDS011;3597;42.650;23.386;2022-09-17T14:51:12;5.57;;;5.47;;
7110;SDS011;3597;42.650;23.386;2022-09-17T14:53:41;6.40;;;6.30;;
7110;SDS011;3597;42.650;23.386;2022-09-17T14:56:08;6.30;;;6.20;;
7110;SDS011;3597;42.650;23.386;2022-09-17T14:58:36;3.80;;;3.80;;
7110;SDS011;3597;42.650;23.386;2022-09-17T15:01:29;3.90;;;3.70;;
7110;SDS011;3597;42.650;23.386;2022-09-17T15:06:39;4.47;;;4.47;;
7110;SDS011;3597;42.650;23.386;2022-09-17T15:09:05;5.90;;;5.80;;
7110;SDS011;3597;42.650;23.386;2022-09-17T15:11:33;4.63;;;4.53;;
7110;SDS011;3597;42.650;23.386;2022-09-17T15:14:02;4.67;;;4.50;;
7110;SDS011;3597;42.650;23.386;2022-09-17T15:16:29;5.27;;;5.17;;
7110;SDS011;3597;42.650;23.386;2022-09-17T15:18:57;7.03;;;6.93;;
7110;SDS011;3597;42.650;23.386;2022-09-17T15:21:33;5.67;;;5.57;;
7110;SDS011;3597;42.650;23.386;2022-09-17T15:26:50;3.70;;;3.70;;
7110;SDS011;3597;42.650;23.386;2022-09-17T15:29:18;4.17;;;4.17;;
7110;SDS011;3597;42.650;23.386;2022-09-17T15:31:45;3.87;;;3.87;;
7110;SDS011;3597;42.650;23.386;2022-09-17T15:34:11;4.03;;;3.93;;
7110;SDS011;3597;42.650;23.386;2022-09-17T15:36:36;3.83;;;3.77;;
7110;SDS011;3597;42.650;23.386;2022-09-17T15:39:06;4.03;;;4.03;;
7110;SDS011;3597;42.650;23.386;2022-09-17T15:41:57;5.10;;;4.90;;
7110;SDS011;3597;42.650;23.386;2022-09-17T15:44:23;5.50;;;5.40;;
7110;SDS011;3597;42.650;23.386;2022-09-17T15:46:50;3.87;;;3.87;;
7110;SDS011;3597;42.650;23.386;2022-09-17T15:54:50;4.90;;;4.80;;
7110;SDS011;3597;42.650;23.386;2022-09-17T15:57:15;5.23;;;5.23;;
7110;SDS011;3597;42.650;23.386;2022-09-17T15:59:41;6.70;;;6.60;;
7110;SDS011;3597;42.650;23.386;2022-09-17T16:02:08;6.97;;;6.87;;
7110;SDS011;3597;42.650;23.386;2022-09-17T16:04:49;8.57;;;8.47;;
7110;SDS011;3597;42.650;23.386;2022-09-17T16:07:43;8.17;;;7.97;;
7110;SDS011;3597;42.650;23.386;2022-09-17T16:10:09;7.47;;;7.37;;
7110;SDS011;3597;42.650;23.386;2022-09-17T16:12:35;8.63;;;8.53;;
7110;SDS011;3597;42.650;23.386;2022-09-17T16:15:00;13.00;;;12.70;;
7110;SDS011;3597;42.650;23.386;2022-09-17T16:20:05;9.57;;;9.37;;
7110;SDS011;3597;42.650;23.386;2022-09-17T16:22:33;11.37;;;11.07;;
7110;SDS011;3597;42.650;23.386;2022-09-17T16:24:58;10.80;;;10.60;;
7110;SDS011;3597;42.650;23.386;2022-09-17T16:27:25;10.93;;;10.53;;
7110;SDS011;3597;42.650;23.386;2022-09-17T16:29:52;11.63;;;11.37;;
7110;SDS011;3597;42.650;23.386;2022-09-17T16:32:24;6.43;;;6.33;;
7110;SDS011;3597;42.650;23.386;2022-09-17T16:34:49;2.37;;;2.37;;
7110;SDS011;3597;42.650;23.386;2022-09-17T16:37:15;2.67;;;2.67;;
7110;SDS011;3597;42.650;23.386;2022-09-17T16:39:40;3.30;;;3.30;;
7110;SDS011;3597;42.650;23.386;2022-09-17T16:42:06;3.40;;;3.40;;
7110;SDS011;3597;42.650;23.386;2022-09-17T16:44:31;2.20;;;2.20;;
7110;SDS011;3597;42.650;23.386;2022-09-17T16:46:57;1.93;;;1.93;;
7110;SDS011;3597;42.650;23.386;2022-09-17T16:49:22;2.43;;;2.43;;
7110;SDS011;3597;42.650;23.386;2022-09-17T16:51:48;2.17;;;2.17;;
7110;SDS011;3597;42.650;23.386;2022-09-17T16:54:13;2.93;;;2.83;;
7110;SDS011;3597;42.650;23.386;2022-09-17T16:56:38;1.90;;;1.90;;
7110;SDS011;3597;42.650;23.386;2022-09-17T16:59:04;2.20;;;2.20;;
7110;SDS011;3597;42.650;23.386;2022-09-17T17:01:29;2.40;;;2.40;;
7110;SDS011;3597;42.650;23.386;2022-09-17T17:03:55;3.07;;;3.07;;
7110;SDS011;3597;42.650;23.386;2022-09-17T17:06:23;3.03;;;3.03;;
7110;SDS011;3597;42.650;23.386;2022-09-17T17:08:48;2.10;;;2.03;;
7110;SDS011;3597;42.650;23.386;2022-09-17T17:11:14;2.23;;;2.23;;
7110;SDS011;3597;42.650;23.386;2022-09-17T17:13:42;3.27;;;3.27;;
7110;SDS011;3597;42.650;23.386;2022-09-17T17:16:09;5.20;;;5.00;;
7110;SDS011;3597;42.650;23.386;2022-09-17T17:18:36;5.40;;;5.30;;
7110;SDS011;3597;42.650;23.386;2022-09-17T17:21:05;5.60;;;5.40;;
7110;SDS011;3597;42.650;23.386;2022-09-17T17:23:32;4.83;;;4.63;;
7110;SDS011;3597;42.650;23.386;2022-09-17T17:25:58;5.00;;;4.80;;
7110;SDS011;3597;42.650;23.386;2022-09-17T17:28:24;4.23;;;4.20;;
7110;SDS011;3597;42.650;23.386;2022-09-17T17:30:49;3.03;;;3.03;;
7110;SDS011;3597;42.650;23.386;2022-09-17T17:33:14;2.10;;;2.10;;
7110;SDS011;3597;42.650;23.386;2022-09-17T17:35:40;2.87;;;2.87;;
7110;SDS011;3597;42.650;23.386;2022-09-17T17:38:05;3.47;;;3.47;;
7110;SDS011;3597;42.650;23.386;2022-09-17T17:40:31;2.27;;;2.27;;
7110;SDS011;3597;42.650;23.386;2022-09-17T17:42:56;2.57;;;2.47;;
7110;SDS011;3597;42.650;23.386;2022-09-17T17:45:21;2.97;;;2.97;;
7110;SDS011;3597;42.650;23.386;2022-09-17T17:47:47;3.43;;;3.43;;
7110;SDS011;3597;42.650;23.386;2022-09-17T17:50:12;3.03;;;3.03;;
7110;SDS011;3597;42.650;23.386;2022-09-17T17:52:39;3.67;;;3.57;;
7110;SDS011;3597;42.650;23.386;2022-09-17T17:55:07;2.97;;;2.97;;
7110;SDS011;3597;42.650;23.386;2022-09-17T17:57:33;3.10;;;3.10;;
7110;SDS011;3597;42.650;23.386;2022-09-17T17:59:58;3.63;;;3.63;;
7110;SDS011;3597;42.650;23.386;2022-09-17T18:02:24;4.20;;;4.10;;
7110;SDS011;3597;42.650;23.386;2022-09-17T18:04:49;4.23;;;4.23;;
7110;SDS011;3597;42.650;23.386;2022-09-17T18:07:14;3.30;;;3.20;;
7110;SDS011;3597;42.650;23.386;2022-09-17T18:09:40;2.23;;;2.23;;
7110;SDS011;3597;42.650;23.386;2022-09-17T18:12:05;3.63;;;3.60;;
7110;SDS011;3597;42.650;23.386;2022-09-17T18:14:31;6.30;;;6.20;;
7110;SDS011;3597;42.650;23.386;2022-09-17T18:16:56;9.93;;;9.73;;
7110;SDS011;3597;42.650;23.386;2022-09-17T18:19:22;14.40;;;14.03;;